Date,TemperatureHighF,TemperatureAvgF,TemperatureLowF,DewpointHighF,DewpointAvgF,DewpointLowF,HumidityHigh,HumidityAvg,HumidityLow,PressureMaxIn,PressureMinIn,WindSpeedMaxMPH,WindSpeedAvgMPH,GustSpeedMaxMPH,PrecipitationSumIn
2013-1-11,72,64,64,62,56,-100,94,84,73,29.95,29.91,2,-33,0,0.00
2013-1-12,80,65,54,63,59,54,99,82,51,29.95,29.85,4,1,0,0.00
2013-1-13,77,66,57,63,60,57,99,84,60,29.95,29.84,4,1,0,0.00
2013-1-14,79,68,59,64,60,57,99,78,57,29.95,29.86,5,1,0,0.00
2013-1-15,76,67,57,61,59,57,99,79,56,29.94,29.80,5,1,0,0.00
2013-1-16,76,67,62,66,62,59,99,84,65,29.84,29.75,7,1,0,0.00
2013-1-17,71,57,43,65,55,38,99,92,78,30.04,29.56,7,2,0,0.41
2013-1-18,54,43,33,38,30,23,99,67,29,30.34,30.04,5,2,0,0.00
2013-1-19,61,44,32,40,31,24,91,63,36,30.32,30.01,5,1,0,0.00
2013-1-20,66,48,36,40,37,34,99,72,34,30.01,29.85,5,1,0,0.00
2013-1-21,64,48,33,39,33,23,99,61,26,29.90,29.78,5,1,0,0.00
2013-1-22,52,42,34,24,20,18,57,42,27,30.08,29.87,5,1,0,0.00
2013-1-23,55,40,28,32,25,17,77,55,35,30.16,29.94,5,1,0,0.00
2013-1-24,65,51,34,42,31,9,79,51,21,30.21,29.86,7,3,0,0.00
2013-1-25,39,33,28,25,16,9,60,49,37,30.24,29.89,6,1,0,0.00
2013-1-26,62,46,35,37,32,25,80,59,36,30.07,29.87,5,0,0,0.00
2013-1-27,55,43,32,32,28,25,82,58,36,30.27,30.07,7,2,0,0.00
2013-1-28,64,48,40,49,40,30,98,77,59,30.20,30.02,4,1,0,0.00
2013-1-29,77,59,43,62,54,42,99,84,56,30.01,29.80,5,1,0,0.00
2013-1-30,80,68,51,66,61,48,98,82,52,29.79,29.28,9,4,0,0.38
2013-1-31,53,46,38,48,29,22,90,55,30,29.93,29.47,8,3,0,0.00
2013-2-1,52,42,30,30,21,8,65,47,19,30.12,29.88,7,2,0,0.00
2013-2-2,57,40,26,36,19,12,68,46,20,30.14,29.85,4,1,0,0.00
2013-2-3,61,48,37,38,33,26,87,60,32,29.85,29.68,8,2,0,0.00
2013-2-4,52,41,32,33,29,26,92,64,36,29.91,29.79,3,0,0,0.00
2013-2-5,67,49,34,48,40,31,97,73,44,29.82,29.73,6,1,0,0.00
2013-2-6,71,54,40,50,40,30,99,67,25,29.94,29.79,4,1,0,0.00
2013-2-7,50,48,45,49,45,36,99,92,57,29.94,29.62,13,2,0,3.08
2013-2-8,62,49,42,50,46,42,99,89,63,29.88,29.62,5,1,0,0.01
2013-2-9,63,46,31,45,32,24,99,62,24,30.09,29.88,5,1,0,0.00
2013-2-10,67,53,39,56,43,29,99,70,50,30.17,29.91,6,2,0,0.22
2013-2-11,68,59,54,64,59,54,99,98,85,29.98,29.82,4,1,0,1.23
2013-2-12,66,55,49,54,50,42,99,86,42,29.90,29.65,4,1,0,0.95
2013-2-13,58,51,46,56,49,42,99,94,77,29.69,29.49,6,2,0,0.07
2013-2-14,54,44,36,42,39,36,99,83,57,29.87,29.67,3,1,0,0.00
2013-2-15,63,46,32,43,36,32,99,75,32,29.91,29.74,4,1,0,0.00
2013-2-16,48,41,33,40,32,15,98,73,35,29.85,29.63,9,2,0,0.15
2013-2-17,47,35,26,21,16,10,74,47,23,30.09,29.86,6,2,0,0.00
2013-2-18,57,41,25,28,23,18,81,53,26,30.20,30.02,4,1,0,0.00
2013-2-19,53,45,38,51,42,28,99,88,61,30.02,29.78,4,1,0,0.29
2013-2-20,58,43,28,36,29,21,99,63,25,29.97,29.84,5,1,0,0.00
2013-2-21,66,49,33,38,30,22,80,51,25,30.00,29.84,5,1,0,0.00
2013-2-22,51,43,40,43,40,33,99,90,52,29.98,29.86,5,2,0,0.64
2013-2-23,46,43,39,46,43,39,99,99,99,29.86,29.62,4,1,0,0.71
2013-2-24,68,52,44,49,44,38,99,77,33,29.78,29.65,5,1,0,0.00
2013-2-25,49,45,40,44,37,31,96,73,52,29.87,29.73,9,2,0,0.00
2013-2-26,58,47,38,56,46,38,99,97,89,29.73,29.35,6,2,0,0.51
2013-2-27,61,49,40,46,40,37,99,73,45,29.66,29.52,5,2,0,0.00
2013-2-28,55,47,39,41,34,28,87,63,44,29.70,29.56,5,2,0,0.00
2013-3-1,55,43,31,34,30,27,88,62,39,29.75,29.63,4,1,0,0.00
2013-3-2,47,38,30,42,33,28,98,82,65,29.73,29.64,5,1,0,0.04
2013-3-3,49,38,28,29,26,22,95,64,37,29.81,29.67,6,1,0,0.00
2013-3-4,58,41,24,33,24,17,95,56,20,29.97,29.80,5,1,0,0.00
2013-3-5,69,53,37,57,43,32,98,71,50,29.86,29.45,7,2,0,0.04
2013-3-6,51,42,35,37,27,22,76,55,40,29.90,29.54,9,4,0,0.00
2013-3-7,60,43,28,34,30,27,96,65,34,30.02,29.91,5,1,0,0.00
2013-3-8,62,46,34,33,26,19,76,50,19,30.09,29.95,8,2,0,0.00
2013-3-9,67,50,37,37,30,26,72,50,25,30.12,29.99,5,1,0,0.00
2013-3-10,71,55,40,48,41,35,88,63,29,30.06,29.91,7,1,0,0.00
2013-3-11,71,59,46,56,48,39,81,68,51,29.95,29.60,7,2,0,0.00
2013-3-12,70,60,53,59,51,37,99,74,39,29.76,29.53,5,2,0,0.29
2013-3-13,63,51,38,36,30,22,81,47,23,29.95,29.77,10,2,0,0.00
2013-3-14,57,43,30,30,23,19,73,47,25,30.11,29.95,6,1,0,0.00
2013-3-15,74,52,32,40,33,22,86,53,29,30.02,29.77,6,1,0,0.00
2013-3-16,80,64,51,46,43,40,74,48,26,29.81,29.62,8,2,0,0.00
2013-3-17,76,64,52,54,50,45,90,64,40,29.80,29.70,5,1,0,0.00
2013-3-18,69,59,48,61,55,48,99,86,72,29.83,29.58,7,1,0,0.92
2013-3-19,75,58,49,53,42,23,99,66,16,29.81,29.62,6,1,0,0.02
2013-3-20,64,53,44,33,25,19,55,36,19,29.90,29.62,4,1,0,0.00
2013-3-21,58,46,37,28,20,11,61,38,19,29.73,29.60,6,2,0,0.00
2013-3-22,52,43,34,34,23,16,67,47,32,29.87,29.73,3,1,0,0.00
2013-3-23,55,47,44,52,43,34,99,86,64,29.84,29.67,6,1,0,0.43
2013-3-24,49,47,45,49,47,44,99,98,95,29.68,29.33,7,2,0,1.47
2013-3-25,53,45,38,46,30,23,99,58,34,29.79,29.40,8,4,0,0.00
2013-3-26,52,41,32,28,26,23,78,56,38,30.02,29.78,9,2,0,0.00
2013-3-27,63,42,28,32,27,24,93,59,25,30.11,29.99,4,1,0,0.00
2013-3-28,66,46,31,34,27,22,90,53,20,30.14,30.00,7,1,0,0.00
2013-3-29,71,52,38,36,29,23,69,43,21,30.15,29.99,4,1,0,0.00
2013-3-30,76,61,50,48,44,34,81,55,35,30.02,29.84,5,1,0,0.00
2013-3-31,76,64,57,61,55,48,94,73,45,29.84,29.66,6,2,0,0.01
2013-4-1,81,64,53,61,55,41,99,77,28,29.77,29.66,4,1,0,0.58
2013-4-2,78,59,44,48,42,35,96,61,27,29.94,29.77,5,1,0,0.00
2013-4-3,65,56,48,45,36,29,76,47,32,30.03,29.88,7,1,0,0.00
2013-4-4,51,45,41,45,43,40,99,93,64,29.99,29.73,6,2,0,0.71
2013-4-5,60,47,38,48,43,38,99,85,62,29.83,29.68,5,2,0,0.00
2013-4-6,77,58,40,43,39,33,99,58,22,30.00,29.83,5,1,0,0.00
2013-4-7,80,61,46,55,49,42,99,68,38,30.05,29.89,4,1,0,0.00
2013-4-8,83,67,53,58,55,52,99,69,38,29.99,29.87,4,1,0,0.00
2013-4-9,87,70,56,63,58,56,99,72,39,30.01,29.90,4,1,0,0.00
2013-4-10,88,72,58,62,60,57,99,70,38,29.94,29.75,8,1,0,0.00
2013-4-11,85,71,61,69,66,60,99,85,57,29.77,29.54,4,1,0,0.06
2013-4-12,83,71,58,71,61,46,99,76,30,29.64,29.47,4,1,0,0.14
2013-4-13,83,64,47,46,43,39,88,50,23,29.80,29.63,4,1,0,0.00
2013-4-14,72,60,50,61,53,45,99,80,53,29.87,29.62,5,1,0,0.24
2013-4-15,77,66,60,64,61,59,99,85,61,29.94,29.72,3,1,0,0.00
2013-4-16,86,70,60,63,61,59,99,77,43,30.05,29.94,6,0,0,0.00
2013-4-17,88,69,57,64,60,56,98,76,43,30.01,29.88,3,0,0,0.00
2013-4-18,85,72,62,67,62,58,98,72,48,29.93,29.75,4,1,0,0.00
2013-4-19,85,70,51,70,65,51,98,87,57,29.78,29.60,6,2,0,0.36
2013-4-20,71,55,45,51,43,35,98,70,28,30.03,29.73,5,1,0,0.01
2013-4-21,73,57,43,44,42,37,99,63,32,30.15,30.04,7,2,0,0.00
2013-4-22,73,58,50,45,37,32,72,47,26,30.11,29.96,9,2,0,0.00
2013-4-23,79,60,48,52,46,37,83,62,36,30.02,29.89,6,1,0,0.00
2013-4-24,82,67,54,60,57,52,97,72,44,29.96,29.83,4,1,0,0.00
2013-4-25,83,72,55,62,53,41,92,56,24,30.03,29.88,5,1,0,0.00
2013-4-26,80,64,50,58,49,38,89,60,37,30.18,30.02,6,1,0,0.00
2013-4-27,71,61,54,58,54,48,96,77,59,30.14,29.99,4,1,0,0.25
2013-4-28,75,64,57,66,61,51,98,90,68,29.99,29.78,3,1,0,2.05
2013-4-29,74,66,60,68,63,59,99,92,74,29.85,29.72,2,0,0,0.79
2013-4-30,80,65,57,66,61,56,99,88,59,29.90,29.73,5,0,0,0.00
2013-5-1,72,64,59,61,58,56,98,83,63,29.99,29.88,5,2,0,0.00
2013-5-2,71,65,61,62,60,57,93,83,72,29.98,29.90,10,2,0,0.00
2013-5-3,68,61,57,61,58,55,95,88,76,29.91,29.80,7,2,0,0.03
2013-5-4,62,58,54,58,54,48,97,85,69,29.80,29.64,7,2,0,0.25
2013-5-5,76,61,55,66,59,54,99,92,66,29.65,29.55,5,1,0,1.43
2013-5-6,73,59,50,55,51,48,99,77,46,29.73,29.60,4,1,0,0.00
2013-5-7,76,60,50,56,52,48,96,76,46,29.77,29.66,4,1,0,0.01
2013-5-8,84,65,49,58,53,48,99,71,37,29.83,29.72,4,1,0,0.00
2013-5-9,90,70,55,61,57,54,98,70,35,29.89,29.79,3,0,0,0.00
2013-5-10,92,73,58,64,60,57,97,68,35,29.89,29.73,5,1,0,0.00
2013-5-11,85,73,62,67,63,59,90,73,54,29.79,29.65,4,1,0,0.00
2013-5-12,85,70,58,64,53,36,93,58,28,29.84,29.64,6,1,0,0.00
2013-5-13,78,62,48,45,39,32,74,47,22,29.96,29.82,9,1,0,0.00
2013-5-14,85,64,47,48,40,35,70,45,18,30.06,29.92,3,1,0,0.00
2013-5-15,96,72,55,62,55,46,83,59,31,29.94,29.78,4,1,0,0.00
2013-5-16,87,74,61,66,62,58,90,68,45,29.87,29.77,2,0,0,0.00
2013-5-17,95,74,60,66,62,59,97,69,32,29.91,29.80,3,0,0,0.00
2013-5-18,86,73,66,68,65,60,90,76,54,29.93,29.84,3,0,0,0.00
2013-5-19,84,73,67,70,67,65,94,83,60,29.91,29.82,3,0,0,0.00
2013-5-20,91,77,68,71,68,66,95,77,49,29.89,29.79,3,0,0,0.00
2013-5-21,96,73,65,72,68,64,97,87,44,29.84,29.71,4,0,0,0.82
2013-5-22,91,74,63,72,66,62,99,80,47,29.80,29.66,4,0,0,0.00
2013-5-23,88,76,67,70,66,60,96,75,43,29.74,29.64,4,1,0,0.00
2013-5-24,87,72,60,62,49,32,86,50,17,29.96,29.68,11,2,0,0.00
2013-5-25,86,66,50,53,44,38,81,50,19,30.10,29.96,4,1,0,0.00
2013-5-26,90,70,54,56,51,46,89,57,24,30.04,29.93,3,1,0,0.00
2013-5-27,95,75,59,62,58,53,87,58,30,30.02,29.91,3,0,0,0.00
2013-5-28,94,75,62,67,62,57,94,66,38,30.01,29.92,4,1,0,0.00
2013-5-29,95,76,62,66,62,60,96,67,38,30.03,29.92,4,1,0,0.00
2013-5-30,94,77,63,69,65,61,97,70,39,30.04,29.90,3,0,0,0.00
2013-5-31,96,79,68,71,68,63,95,72,39,30.02,29.87,4,1,0,0.00
2013-6-1,96,78,66,70,67,64,97,71,42,29.92,29.78,4,1,0,0.00
2013-6-2,97,78,68,74,69,66,95,76,40,29.85,29.63,4,1,0,0.44
2013-6-3,93,78,71,74,71,68,98,83,49,29.73,29.62,3,0,0,0.92
2013-6-4,97,77,68,72,70,68,98,81,42,29.82,29.70,4,0,0,0.03
2013-6-5,84,73,69,75,71,67,98,92,73,29.83,29.70,6,0,0,1.64
2013-6-6,80,72,70,74,70,69,99,94,79,29.73,29.50,4,0,0,1.37
2013-6-7,88,74,68,75,70,68,98,89,63,29.64,29.34,5,1,0,2.08
2013-6-8,90,76,69,71,69,67,98,81,52,29.88,29.61,3,1,0,0.00
2013-6-9,89,73,70,76,70,68,99,91,62,29.92,29.82,4,0,0,1.89
2013-6-10,83,74,71,76,72,70,99,95,80,29.88,29.82,3,1,0,0.77
2013-6-11,93,83,76,77,74,73,92,75,57,29.79,29.71,4,1,0,0.00
2013-6-12,102,83,70,77,73,69,99,76,40,29.80,29.70,3,0,0,0.00
2013-6-13,100,85,74,76,73,71,95,71,42,29.72,29.49,5,1,0,0.00
2013-6-14,93,79,70,72,63,56,93,61,31,29.79,29.54,6,2,0,0.00
2013-6-15,94,77,63,65,61,56,88,61,31,29.91,29.79,3,0,0,0.00
2013-6-16,92,78,65,71,66,60,91,69,45,29.94,29.79,3,1,0,0.00
2013-6-17,98,77,69,76,69,64,99,79,43,29.87,29.73,4,1,0,1.18
2013-6-18,86,76,69,77,72,68,99,89,72,29.80,29.62,4,1,0,0.26
2013-6-19,83,75,69,75,72,66,98,89,72,29.87,29.68,5,0,0,0.31
2013-6-20,92,76,67,69,66,62,95,72,39,29.98,29.85,7,2,0,0.00
2013-6-21,92,76,65,65,62,60,93,66,38,30.02,29.91,5,1,0,0.00
2013-6-22,92,77,67,74,67,60,94,72,47,29.98,29.89,4,1,0,0.04
2013-6-23,89,76,69,77,72,68,97,87,59,29.99,29.91,3,0,0,0.45
2013-6-24,93,76,70,76,72,69,98,86,55,30.02,29.90,3,0,0,0.07
2013-6-25,95,77,68,76,71,68,98,84,51,29.97,29.83,3,0,0,0.00
2013-6-26,94,75,70,79,72,69,97,90,61,29.87,29.73,4,0,0,1.06
2013-6-27,93,80,72,78,74,70,99,83,59,29.77,29.56,4,1,0,0.00
2013-6-28,98,82,71,78,73,67,96,76,51,29.61,29.44,4,1,0,0.00
2013-6-29,90,78,72,75,71,67,90,79,62,29.53,29.47,3,1,0,0.00
2013-6-30,91,77,70,77,72,68,96,87,60,29.64,29.50,4,0,0,0.23
2013-7-1,84,75,68,75,71,68,97,89,71,29.76,29.57,3,0,0,0.51
2013-7-2,83,76,72,74,71,70,93,87,73,29.90,29.76,3,1,0,0.00
2013-7-3,85,75,71,76,72,69,97,91,72,29.95,29.87,3,0,0,1.56
2013-7-4,88,78,71,76,74,70,99,88,66,29.95,29.88,4,1,0,0.57
2013-7-5,90,78,72,77,74,70,97,88,64,29.98,29.91,3,0,0,0.19
2013-7-6,88,77,71,76,73,70,98,89,66,29.97,29.87,4,0,0,0.13
2013-7-7,94,78,73,78,74,72,98,87,58,29.95,29.83,3,0,0,0.16
2013-7-8,96,77,72,77,73,71,96,87,54,29.97,29.90,4,0,0,0.00
2013-7-9,95,80,72,78,74,71,97,84,57,29.96,29.85,4,0,0,0.18
2013-7-10,93,78,72,77,73,70,97,86,61,29.90,29.75,3,1,0,0.81
2013-7-11,94,78,72,76,72,70,96,84,55,29.76,29.64,3,1,0,0.28
2013-7-12,85,75,70,76,72,68,97,90,71,29.75,29.64,2,0,0,0.74
2013-7-13,80,74,69,73,70,66,95,89,76,29.84,29.73,4,1,0,0.14
2013-7-14,84,75,70,76,72,69,98,91,74,30.01,29.83,4,1,0,0.46
2013-7-15,91,77,72,76,73,71,98,88,61,30.05,29.98,6,1,0,0.04
2013-7-16,95,80,71,75,71,69,98,77,47,30.08,29.98,4,0,0,0.00
2013-7-17,99,78,71,77,71,67,96,83,47,30.02,29.90,11,0,0,0.55
2013-7-18,94,79,69,77,72,68,97,80,56,29.97,29.83,3,0,0,0.00
2013-7-19,97,80,71,74,71,67,95,77,44,29.91,29.77,4,0,0,0.00
2013-7-20,89,79,73,75,72,70,91,80,62,29.86,29.72,3,1,0,0.00
2013-7-21,93,80,74,77,73,71,90,81,60,29.83,29.70,3,0,0,0.00
2013-7-22,93,79,72,75,72,70,93,80,56,29.81,29.67,5,1,0,0.00
2013-7-23,94,81,74,75,72,70,89,76,52,29.72,29.57,5,1,0,0.00
2013-7-24,96,79,71,78,72,68,93,79,51,29.62,29.52,6,0,0,0.00
2013-7-25,92,80,70,74,71,68,94,76,54,29.78,29.57,4,0,0,0.00
2013-7-26,94,79,71,77,71,67,89,78,50,29.85,29.74,4,1,0,0.16
2013-7-27,88,78,73,77,73,69,94,83,66,29.79,29.64,3,0,0,0.05
2013-7-28,96,80,70,74,71,69,95,76,49,29.80,29.68,4,0,0,0.00
2013-7-29,93,80,72,76,72,69,94,80,58,29.92,29.78,3,0,0,0.02
2013-7-30,97,80,70,76,72,69,95,79,49,29.96,29.89,3,0,0,0.00
2013-7-31,84,76,72,76,72,70,95,89,73,29.93,29.77,2,0,0,0.63
2013-8-1,91,77,72,78,72,71,96,86,64,29.79,29.66,3,0,0,0.18
2013-8-2,91,79,73,78,73,71,94,84,64,29.83,29.70,2,0,0,0.00
2013-8-3,96,81,72,76,72,70,95,78,48,29.83,29.74,3,0,0,0.00
2013-8-4,98,81,73,76,72,70,93,76,46,29.80,29.70,4,0,0,0.00
2013-8-5,90,79,74,73,70,66,91,74,56,29.83,29.75,4,0,0,0.00
2013-8-6,87,78,70,76,70,65,88,78,68,29.84,29.74,2,0,0,0.00
2013-8-7,92,79,72,74,71,70,93,77,53,29.86,29.77,4,0,0,0.00
2013-8-8,97,81,70,74,71,68,94,73,46,29.85,29.78,3,0,0,0.00
2013-8-9,98,82,75,78,75,71,93,80,52,29.90,29.79,3,0,0,0.00
2013-8-10,99,83,73,77,73,71,94,74,47,29.93,29.83,3,1,0,0.00
2013-8-11,99,83,73,76,73,70,93,73,43,29.95,29.83,3,0,0,0.00
2013-8-12,100,83,73,78,74,71,94,76,45,29.88,29.74,4,0,0,0.00
2013-8-13,98,83,74,77,73,71,91,75,49,29.78,29.62,3,1,0,0.00
2013-8-14,84,77,71,73,70,65,91,79,62,29.83,29.65,5,1,0,0.00
2013-8-15,71,66,63,68,64,60,93,90,82,29.88,29.78,6,1,0,1.08
2013-8-16,66,65,64,65,63,62,96,93,88,29.89,29.80,6,1,0,2.94
2013-8-17,69,66,64,67,65,63,96,94,90,29.95,29.84,4,1,0,0.32
2013-8-18,89,74,68,76,70,67,97,87,66,29.98,29.88,4,0,0,0.59
2013-8-19,83,74,70,76,71,68,96,91,76,29.95,29.84,3,0,0,1.36
2013-8-20,85,76,72,77,73,71,95,90,73,29.96,29.86,6,0,0,0.11
2013-8-21,91,78,70,78,73,69,96,85,59,30.01,29.89,3,0,0,0.00
2013-8-22,93,80,70,75,72,67,93,77,50,29.96,29.80,3,0,0,0.00
2013-8-23,95,79,70,77,72,69,95,80,53,29.85,29.74,4,0,0,0.00
2013-8-24,82,74,69,71,68,66,91,82,68,30.03,29.81,7,1,0,0.00
2013-8-25,87,73,64,66,61,58,89,69,41,30.14,30.03,5,1,0,0.00
2013-8-26,88,71,60,63,58,56,86,67,36,30.09,29.91,6,1,0,0.00
2013-8-27,89,73,59,71,63,55,92,74,49,29.95,29.79,3,0,0,0.00
2013-8-28,93,77,66,73,68,64,94,76,47,29.83,29.71,3,0,0,0.00
2013-8-29,98,80,69,78,72,67,94,78,45,29.76,29.66,3,0,0,0.00
2013-8-30,89,79,74,75,72,70,89,79,61,29.81,29.71,4,1,0,0.00
2013-8-31,93,80,72,78,73,70,95,81,59,29.77,29.66,3,0,0,0.00
2013-9-1,94,80,72,80,74,70,95,83,58,29.73,29.60,3,0,0,1.05
2013-9-2,92,79,70,78,73,69,96,84,62,29.73,29.60,3,0,0,0.00
2013-9-3,90,79,72,79,73,70,95,84,63,29.76,29.62,3,0,0,0.09
2013-9-4,95,79,69,76,71,68,96,78,45,29.87,29.73,2,0,0,0.00
2013-9-5,95,80,70,72,70,67,96,75,41,29.89,29.80,3,0,0,0.00
2013-9-6,94,77,69,68,66,63,95,72,40,29.91,29.81,5,0,0,0.00
2013-9-7,91,76,66,69,65,61,85,71,44,29.90,29.77,3,0,0,0.00
2013-9-8,93,76,65,73,67,62,94,74,44,29.80,29.70,3,0,0,0.00
2013-9-9,94,79,67,71,67,64,94,70,39,29.91,29.76,6,0,0,0.00
2013-9-10,96,78,68,73,68,66,96,74,41,30.02,29.91,5,1,0,0.00
2013-9-11,93,77,65,70,66,62,96,72,36,30.01,29.87,4,0,0,0.00
2013-9-12,94,78,67,72,68,65,95,74,44,29.89,29.66,3,0,0,0.00
2013-9-13,94,79,70,71,66,62,93,69,36,29.67,29.54,5,1,0,0.00
2013-9-14,88,74,65,65,59,52,78,62,45,29.85,29.63,7,2,0,0.00
2013-9-15,94,76,66,73,67,60,83,74,46,29.94,29.84,4,1,0,0.00
2013-9-16,92,80,73,76,72,68,95,78,47,29.91,29.79,4,0,0,0.03
2013-9-17,81,74,66,71,64,59,95,72,51,30.02,29.87,6,2,0,0.00
2013-9-18,84,69,61,60,57,54,81,68,43,30.04,29.92,6,1,0,0.00
2013-9-19,86,70,58,64,59,55,90,69,42,29.96,29.84,4,0,0,0.00
2013-9-20,90,74,62,68,64,58,95,73,46,29.87,29.71,3,0,0,0.00
2013-9-21,84,74,66,70,68,64,95,82,64,29.74,29.48,3,0,0,0.30
2013-9-22,86,71,63,70,62,56,96,75,41,29.66,29.49,6,1,0,0.01
2013-9-23,85,69,60,64,59,56,93,71,42,29.83,29.65,5,1,0,0.00
2013-9-24,82,70,61,63,60,57,88,71,49,29.84,29.70,4,0,0,0.00
2013-9-25,76,68,63,63,62,60,95,82,59,29.70,29.61,5,1,0,0.71
2013-9-26,81,68,61,64,61,58,95,82,51,29.78,29.62,4,1,0,0.02
2013-9-27,81,67,57,59,56,54,91,70,41,29.92,29.77,7,1,0,0.00
2013-9-28,78,66,56,58,54,52,88,69,45,30.00,29.90,6,1,0,0.00
2013-9-29,78,65,57,60,55,52,86,72,48,29.92,29.80,5,1,0,0.00
2013-9-30,77,64,53,58,54,51,95,74,45,29.88,29.78,5,0,0,0.00
2013-10-1,83,67,55,61,57,52,97,73,41,29.94,29.83,5,0,0,0.00
2013-10-2,87,70,57,66,60,55,96,73,40,29.95,29.85,4,0,0,0.00
2013-10-3,88,71,60,63,60,58,96,72,39,29.94,29.84,3,0,0,0.00
2013-10-4,87,72,63,70,64,61,96,78,45,29.96,29.86,3,0,0,0.00
2013-10-5,90,73,62,67,63,60,97,74,41,29.92,29.81,5,0,0,0.00
2013-10-6,86,73,62,70,66,61,96,79,51,29.85,29.69,3,0,0,0.00
2013-10-7,79,74,69,74,72,68,97,92,84,29.74,29.59,3,0,0,0.97
2013-10-8,69,63,58,68,57,52,97,83,71,29.92,29.68,9,3,0,0.12
2013-10-9,74,63,57,56,53,51,84,71,48,29.96,29.86,7,2,0,0.00
2013-10-10,78,63,51,59,53,48,88,72,44,29.90,29.76,5,1,0,0.00
2013-10-11,83,67,57,62,58,53,91,74,45,29.80,29.70,4,0,0,0.00
2013-10-12,86,68,57,66,61,55,98,78,47,29.86,29.73,4,0,0,0.00
2013-10-13,77,70,65,66,63,60,85,78,67,29.97,29.85,5,1,0,0.00
2013-10-14,71,67,65,64,62,60,91,84,76,29.97,29.89,7,2,0,0.00
2013-10-15,76,66,59,61,58,54,88,75,49,29.93,29.81,5,2,0,0.00
2013-10-16,80,66,56,65,59,52,96,79,55,29.85,29.74,3,0,0,0.00
2013-10-17,84,72,63,69,64,60,95,79,57,29.77,29.66,3,0,0,0.00
2013-10-18,80,72,68,68,67,65,94,84,65,29.79,29.69,2,0,0,0.00
2013-10-19,78,69,62,68,60,54,95,76,49,29.75,29.68,7,0,0,0.00
2013-10-20,74,62,53,56,52,49,89,72,48,29.85,29.72,3,0,0,0.00
2013-10-21,74,61,52,59,54,49,90,78,54,29.92,29.80,4,0,0,0.00
2013-10-22,69,63,59,61,59,56,95,86,73,29.84,29.63,3,0,0,0.00
2013-10-23,72,61,49,61,48,32,96,68,23,29.86,29.57,5,1,0,0.00
2013-10-24,68,51,37,44,38,33,91,64,33,30.01,29.86,3,0,0,0.00
2013-10-25,61,50,42,43,38,33,84,65,37,30.16,29.96,6,1,0,0.00
2013-10-26,66,49,36,40,34,29,82,61,26,30.14,29.93,3,0,0,0.00
2013-10-27,76,55,41,56,46,38,91,73,44,29.95,29.87,3,0,0,0.00
2013-10-28,73,61,53,59,55,50,95,81,55,30.07,29.92,2,0,0,0.00
2013-10-29,79,62,51,59,53,49,96,77,46,30.14,30.04,4,0,0,0.00
2013-10-30,80,64,52,59,55,50,95,75,45,30.12,29.97,4,0,0,0.00
2013-10-31,80,67,54,66,60,52,96,80,58,29.99,29.75,4,0,0,0.00
2013-11-1,75,67,64,68,64,62,97,89,79,29.74,29.52,4,1,0,1.56
2013-11-2,72,61,50,63,53,45,97,78,39,29.78,29.55,6,1,0,0.00
2013-11-3,69,53,43,44,41,37,87,67,36,30.09,29.78,6,1,0,0.00
2013-11-4,65,51,43,40,37,32,82,61,32,30.27,30.10,8,1,0,0.00
2013-11-5,67,54,41,53,44,34,82,71,53,30.28,30.14,7,2,0,0.00
2013-11-6,78,61,51,60,54,47,92,78,54,30.15,29.90,5,1,0,0.00
2013-11-7,75,61,52,64,53,29,96,77,35,29.90,29.75,3,1,0,0.00
2013-11-8,64,51,40,34,30,22,74,48,21,30.10,29.91,5,1,0,0.00
2013-11-9,66,50,38,40,32,19,75,53,17,30.17,30.02,4,0,0,0.00
2013-11-10,71,55,46,43,38,26,75,58,18,30.06,29.95,3,0,0,0.00
2013-11-11,69,53,43,39,33,26,75,49,20,30.11,29.96,6,1,0,0.00
2013-11-12,75,52,38,42,34,25,84,56,20,30.19,29.83,12,2,0,0.00
2013-11-13,52,38,29,25,15,1,64,44,12,30.36,30.20,10,2,0,0.00
2013-11-14,65,42,26,31,18,-4,75,48,6,30.31,30.12,3,0,0,0.00
2013-11-15,65,54,40,51,43,32,81,68,56,30.13,29.95,3,0,0,0.00
2013-11-16,76,62,52,57,53,47,88,72,50,30.04,29.92,4,0,0,0.00
2013-11-17,73,64,54,64,58,50,89,83,68,29.96,29.75,2,0,0,0.00
2013-11-18,87,71,55,67,52,29,90,57,25,29.76,29.62,6,1,0,0.00
2013-11-19,65,52,45,31,23,11,54,35,12,29.99,29.76,8,2,0,0.00
2013-11-20,57,50,41,37,31,24,62,48,36,30.14,29.98,11,3,0,0.00
2013-11-21,60,54,49,47,42,36,78,65,55,30.20,30.12,5,2,0,0.00
2013-11-22,76,61,52,59,52,45,85,73,55,30.13,29.94,4,1,0,0.00
2013-11-23,64,60,50,59,51,18,89,75,24,29.95,29.83,4,1,0,0.00
2013-11-24,51,41,30,20,12,3,48,32,14,30.30,29.96,10,2,0,0.00
2013-11-25,52,40,27,24,11,0,44,31,17,30.33,30.04,5,2,0,0.00
2013-11-26,67,53,42,64,46,24,91,78,44,30.04,29.36,5,2,0,0.98
2013-11-27,52,43,30,48,39,26,90,83,69,30.01,29.34,5,1,0,0.18
2013-11-28,51,35,25,28,23,19,84,66,31,30.28,30.02,5,1,0,0.00
2013-11-29,60,41,28,34,25,19,87,60,20,30.34,30.24,4,1,0,0.00
2013-11-30,53,43,33,33,28,23,66,55,37,30.36,30.12,7,2,0,0.00
2013-12-1,59,49,42,44,38,32,81,65,52,30.11,29.80,3,0,0,0.00
2013-12-2,66,52,45,42,40,38,85,67,36,29.79,29.62,6,1,0,0.00
2013-12-3,63,55,49,54,48,42,89,78,69,29.75,29.66,3,0,0,0.97
2013-12-4,70,61,57,62,57,54,91,87,73,29.87,29.73,3,0,0,0.33
2013-12-5,67,64,61,64,61,58,91,90,83,29.92,29.85,3,0,0,0.10
2013-12-6,79,68,61,66,62,58,91,80,64,29.92,29.82,5,1,0,0.01
2013-12-7,68,60,46,64,56,42,91,87,80,30.13,29.85,7,1,0,0.24
2013-12-8,46,43,41,42,40,38,90,89,87,30.16,30.04,6,2,0,0.21
2013-12-9,55,48,40,52,45,38,91,90,87,30.03,29.82,2,0,0,0.26
2013-12-10,65,55,40,63,49,28,91,80,58,30.13,29.74,7,2,0,0.11
2013-12-11,59,42,32,35,29,25,82,61,29,30.24,30.10,3,1,0,0.00
2013-12-12,58,41,32,33,25,14,87,59,18,30.21,30.08,5,1,0,0.00
2013-12-13,60,43,29,35,25,14,79,54,17,30.19,29.99,3,0,0,0.00
2013-12-14,63,54,46,60,47,35,91,79,64,30.00,29.60,4,1,0,1.54
2013-12-15,55,49,37,50,41,30,91,75,54,29.93,29.57,5,2,0,0.09
2013-12-16,63,43,30,34,30,26,88,65,27,30.02,29.92,4,0,0,0.00
2013-12-17,65,48,37,34,31,28,77,54,25,30.02,29.85,6,1,0,0.00
2013-12-18,58,45,34,32,24,11,68,47,15,30.11,29.88,5,1,0,0.00
2013-12-19,65,45,31,41,29,13,78,57,13,30.18,30.02,3,0,0,0.00
2013-12-20,72,55,43,54,47,40,90,76,49,30.06,29.95,4,0,0,0.00
2013-12-21,80,64,52,62,55,47,90,74,48,29.95,29.80,4,1,0,0.00
2013-12-22,77,70,65,66,64,62,90,80,67,29.88,29.80,5,2,0,0.58
2013-12-23,68,61,52,65,58,47,91,88,82,29.94,29.80,3,1,0,0.81
2013-12-24,58,45,36,47,31,17,87,61,22,30.17,29.93,7,2,0,0.01
2013-12-25,50,39,28,22,17,13,58,43,25,30.31,30.14,7,2,0,0.00
2013-12-26,53,43,37,38,31,19,83,63,39,30.14,30.03,4,1,0,0.00
2013-12-27,55,43,36,33,27,21,85,57,28,30.25,30.11,7,1,0,0.00
2013-12-28,57,44,33,41,29,23,88,60,27,30.20,29.85,6,1,0,0.20
2013-12-29,62,52,44,59,47,41,91,83,69,29.84,29.57,5,2,0,1.33
2013-12-30,57,47,39,44,41,36,90,78,60,29.95,29.76,4,0,0,0.00
2013-12-31,57,48,39,42,36,23,79,65,29,30.16,29.94,5,1,0,0.00
2014-1-1,52,45,37,40,36,30,81,70,57,30.18,29.94,2,0,0,0.00
2014-1-2,51,47,36,49,42,29,91,85,74,29.94,29.49,6,1,0,0.43